createdAt,value
2023-05-24T00:01:31.270Z,2.40
2023-05-24T00:04:00.996Z,2.83
2023-05-24T00:06:28.933Z,2.80
2023-05-24T00:08:56.895Z,2.47
2023-05-24T00:11:24.449Z,2.70
2023-05-24T00:13:51.979Z,2.40
2023-05-24T00:16:21.023Z,3.00
2023-05-24T00:18:48.607Z,2.93
2023-05-24T00:21:16.330Z,2.40
2023-05-24T00:23:44.005Z,3.77
2023-05-24T00:26:11.523Z,2.80
2023-05-24T00:28:41.342Z,3.17
2023-05-24T00:31:09.056Z,2.73
2023-05-24T00:33:37.912Z,2.50
2023-05-24T00:36:06.597Z,3.17
2023-05-24T00:38:34.345Z,3.13
2023-05-24T00:41:02.034Z,2.40
2023-05-24T00:43:29.567Z,3.70
2023-05-24T00:46:17.219Z,3.57
2023-05-24T00:48:46.460Z,3.53
2023-05-24T00:51:14.611Z,3.00
2023-05-24T00:53:45.583Z,3.13
2023-05-24T00:56:15.051Z,2.57
2023-05-24T00:58:43.273Z,2.77
2023-05-24T01:01:11.624Z,3.17
2023-05-24T01:03:39.529Z,2.23
2023-05-24T01:06:09.755Z,3.17
2023-05-24T01:08:56.093Z,3.00
2023-05-24T01:11:36.477Z,2.90
2023-05-24T01:14:16.283Z,3.00
2023-05-24T01:16:51.637Z,3.17
2023-05-24T01:19:43.399Z,3.50
2023-05-24T01:22:25.129Z,2.73
2023-05-24T01:25:03.616Z,2.60
2023-05-24T01:27:34.194Z,3.47
2023-05-24T01:30:02.941Z,3.30
2023-05-24T01:32:31.305Z,2.80
2023-05-24T01:34:58.852Z,2.70
2023-05-24T01:37:26.347Z,3.10
2023-05-24T01:39:54.300Z,3.50
2023-05-24T01:42:27.502Z,3.10
2023-05-24T01:45:06.900Z,3.83
2023-05-24T01:47:48.118Z,3.47
2023-05-24T01:50:22.919Z,4.20
2023-05-24T01:52:53.366Z,2.87
2023-05-24T01:55:22.621Z,3.33
2023-05-24T01:57:52.422Z,3.10
2023-05-24T02:00:25.178Z,3.30
2023-05-24T02:02:56.921Z,3.47
2023-05-24T02:05:24.695Z,4.00
2023-05-24T02:07:52.385Z,3.17
2023-05-24T02:10:20.156Z,2.90
2023-05-24T02:12:47.821Z,4.43
2023-05-24T02:15:15.405Z,3.53
2023-05-24T02:17:46.030Z,3.60
2023-05-24T02:20:14.480Z,3.10
2023-05-24T02:22:42.069Z,3.73
2023-05-24T02:25:09.907Z,4.70
2023-05-24T02:27:40.159Z,3.17
2023-05-24T02:30:09.622Z,4.43
2023-05-24T02:32:37.331Z,3.73
2023-05-24T02:35:07.577Z,4.90
2023-05-24T02:37:35.180Z,3.80
2023-05-24T02:40:02.871Z,4.70
2023-05-24T02:42:33.197Z,4.03
2023-05-24T02:45:00.730Z,3.37
2023-05-24T02:47:29.563Z,3.60
2023-05-24T02:49:57.592Z,3.93
2023-05-24T02:52:26.709Z,4.07
2023-05-24T02:54:54.392Z,3.87
2023-05-24T02:57:22.803Z,3.90
2023-05-24T02:59:53.919Z,4.13
2023-05-24T03:02:22.002Z,6.43
2023-05-24T03:04:49.722Z,4.03
2023-05-24T03:07:17.321Z,4.53
2023-05-24T03:09:46.265Z,4.17
2023-05-24T03:12:14.085Z,4.50
2023-05-24T03:14:41.675Z,5.03
2023-05-24T03:17:10.980Z,3.60
2023-05-24T03:19:41.991Z,4.10
2023-05-24T03:22:09.654Z,5.23
2023-05-24T03:24:38.577Z,4.20
2023-05-24T03:27:10.637Z,3.40
2023-05-24T03:29:38.222Z,3.53
2023-05-24T03:32:07.027Z,4.30
2023-05-24T03:34:34.675Z,3.60
2023-05-24T03:37:02.713Z,4.73
2023-05-24T03:39:30.500Z,4.63
2023-05-24T03:42:13.983Z,4.80
2023-05-24T03:44:41.612Z,5.00
2023-05-24T03:47:09.391Z,4.37
2023-05-24T03:49:37.700Z,4.40
2023-05-24T03:52:05.972Z,4.60
2023-05-24T03:54:33.557Z,4.00
2023-05-24T03:57:02.822Z,4.47
2023-05-24T03:59:31.858Z,4.33
2023-05-24T04:01:59.526Z,3.93
2023-05-24T04:04:27.056Z,3.90
2023-05-24T04:06:56.175Z,4.27
2023-05-24T04:09:24.757Z,4.43
2023-05-24T04:11:52.401Z,4.40
2023-05-24T04:14:20.038Z,4.30
2023-05-24T04:16:49.028Z,4.80
2023-05-24T04:19:16.747Z,3.67
2023-05-24T04:21:44.837Z,4.90
2023-05-24T04:24:12.352Z,3.83
2023-05-24T04:26:40.150Z,4.17
2023-05-24T04:29:08.770Z,3.90
2023-05-24T04:31:36.617Z,5.00
2023-05-24T04:34:07.819Z,5.43
2023-05-24T04:36:35.605Z,5.93
2023-05-24T04:39:05.094Z,3.77
2023-05-24T04:41:33.197Z,4.70
2023-05-24T04:44:00.798Z,4.30
2023-05-24T04:46:28.479Z,4.90
2023-05-24T04:48:56.221Z,3.70
2023-05-24T04:51:25.186Z,4.50
2023-05-24T04:53:52.776Z,4.97
2023-05-24T04:56:20.290Z,5.37
2023-05-24T04:58:48.861Z,5.43
2023-05-24T05:01:16.567Z,4.90
2023-05-24T05:03:45.958Z,3.97
2023-05-24T05:06:13.701Z,4.70
2023-05-24T05:08:42.640Z,4.43
2023-05-24T05:11:10.358Z,5.20
2023-05-24T05:13:37.968Z,4.37
2023-05-24T05:16:05.916Z,4.60
2023-05-24T05:18:33.833Z,5.50
2023-05-24T05:21:03.075Z,5.20
2023-05-24T05:23:30.689Z,5.33
2023-05-24T05:25:59.768Z,4.20
2023-05-24T05:28:27.313Z,4.03
2023-05-24T05:30:56.869Z,4.70
2023-05-24T05:33:24.574Z,4.67
2023-05-24T05:35:54.762Z,3.90
2023-05-24T05:38:22.624Z,5.27
2023-05-24T05:40:50.338Z,5.00
2023-05-24T05:43:19.381Z,4.67
2023-05-24T05:45:47.038Z,6.47
2023-05-24T05:48:14.701Z,4.40
2023-05-24T05:50:42.397Z,3.73
2023-05-24T05:53:10.522Z,4.43
2023-05-24T05:55:40.179Z,4.60
2023-05-24T05:58:07.666Z,4.80
2023-05-24T06:00:36.531Z,4.33
2023-05-24T06:03:04.302Z,5.37
2023-05-24T06:05:31.916Z,4.70
2023-05-24T06:07:59.458Z,4.00
2023-05-24T06:10:27.655Z,4.50
2023-05-24T06:12:55.317Z,5.57
2023-05-24T06:15:23.393Z,5.20
2023-05-24T06:17:52.793Z,4.73
2023-05-24T06:20:20.500Z,4.60
2023-05-24T06:22:49.644Z,5.30
2023-05-24T06:25:20.885Z,5.23
2023-05-24T06:27:48.462Z,5.03
2023-05-24T06:30:16.057Z,4.53
2023-05-24T06:32:43.665Z,5.83
2023-05-24T06:35:12.761Z,4.73
2023-05-24T06:37:40.792Z,5.10
2023-05-24T06:40:10.212Z,4.57
2023-05-24T06:42:39.406Z,5.17
2023-05-24T06:45:08.316Z,5.90
2023-05-24T06:47:36.805Z,4.30
2023-05-24T06:50:05.068Z,5.10
2023-05-24T06:52:33.937Z,4.43
2023-05-24T06:55:01.539Z,4.60
2023-05-24T06:57:29.037Z,3.43
2023-05-24T06:59:56.899Z,4.70
2023-05-24T07:02:27.447Z,4.13
2023-05-24T07:04:55.211Z,4.07
2023-05-24T07:07:23.223Z,4.10
2023-05-24T07:09:52.083Z,4.30
2023-05-24T07:12:22.106Z,3.90
2023-05-24T07:14:49.602Z,3.90
2023-05-24T07:17:17.168Z,4.30
2023-05-24T07:19:44.772Z,3.47
2023-05-24T07:22:12.574Z,3.87
2023-05-24T07:24:40.155Z,4.43
2023-05-24T07:27:09.411Z,3.43
2023-05-24T07:29:37.045Z,3.77
2023-05-24T07:32:04.980Z,4.30
2023-05-24T07:34:32.502Z,4.13
2023-05-24T07:37:00.712Z,5.10
2023-05-24T07:39:28.765Z,3.87
2023-05-24T07:41:56.290Z,3.37
2023-05-24T07:44:25.252Z,3.10
2023-05-24T07:46:52.928Z,4.10
2023-05-24T07:49:20.608Z,3.77
2023-05-24T07:51:48.758Z,4.73
2023-05-24T07:54:16.847Z,3.73
2023-05-24T07:56:44.518Z,3.60
2023-05-24T07:59:12.067Z,4.43
2023-05-24T08:01:41.379Z,4.40
2023-05-24T08:04:10.404Z,4.20
2023-05-24T08:06:38.072Z,5.97
2023-05-24T08:09:05.960Z,3.77
2023-05-24T08:11:33.483Z,4.60
2023-05-24T08:14:01.002Z,5.40
2023-05-24T08:16:28.555Z,4.00
2023-05-24T08:18:57.909Z,3.80
2023-05-24T08:21:25.439Z,4.00
2023-05-24T08:23:53.152Z,4.13
2023-05-24T08:26:21.101Z,4.90
2023-05-24T08:28:50.460Z,4.83
2023-05-24T08:31:18.127Z,4.20
2023-05-24T08:33:50.179Z,5.17
2023-05-24T08:36:19.375Z,4.43
2023-05-24T08:38:46.979Z,4.67
2023-05-24T08:41:14.695Z,4.43
2023-05-24T08:43:43.592Z,5.30
2023-05-24T08:46:12.494Z,5.10
2023-05-24T08:48:46.434Z,5.60
2023-05-24T08:51:15.553Z,5.50
2023-05-24T08:53:48.363Z,4.70
2023-05-24T08:56:18.252Z,5.40
2023-05-24T08:58:47.065Z,5.40
2023-05-24T09:01:15.862Z,6.23
2023-05-24T09:03:45.155Z,4.80
2023-05-24T09:06:17.391Z,4.30
2023-05-24T09:08:46.415Z,4.60
2023-05-24T09:11:16.272Z,4.93
2023-05-24T09:13:46.217Z,4.33
2023-05-24T09:16:15.184Z,4.60
2023-05-24T09:18:43.601Z,5.93
2023-05-24T09:21:11.594Z,5.50
2023-05-24T09:23:39.421Z,4.10
2023-05-24T09:26:10.400Z,5.83
2023-05-24T09:28:38.705Z,4.53
2023-05-24T09:31:08.158Z,5.20
2023-05-24T09:33:36.611Z,4.00
2023-05-24T09:36:06.113Z,5.60
2023-05-24T09:38:35.977Z,4.70
2023-05-24T09:41:05.478Z,4.90
2023-05-24T09:43:36.254Z,5.27
2023-05-24T09:46:05.637Z,5.07
2023-05-24T09:48:33.233Z,4.43
2023-05-24T09:51:05.223Z,4.90
2023-05-24T09:53:34.077Z,3.80
2023-05-24T09:56:01.867Z,4.47
2023-05-24T09:58:34.502Z,4.33
2023-05-24T10:01:06.563Z,4.27
2023-05-24T10:03:34.993Z,4.40
2023-05-24T10:06:04.971Z,5.07
2023-05-24T10:08:34.512Z,5.10
2023-05-24T10:11:03.235Z,4.50
2023-05-24T10:13:32.065Z,5.23
2023-05-24T10:16:00.985Z,5.20
2023-05-24T10:18:28.614Z,4.80
2023-05-24T10:20:58.222Z,5.00
2023-05-24T10:23:30.370Z,4.60
2023-05-24T10:26:06.504Z,5.40
2023-05-24T10:28:36.917Z,5.33
2023-05-24T10:31:11.218Z,5.27
2023-05-24T10:33:39.894Z,6.13
2023-05-24T10:36:10.719Z,5.77
2023-05-24T10:38:40.651Z,6.13
2023-05-24T10:41:08.672Z,5.50
2023-05-24T10:43:36.925Z,5.20
2023-05-24T10:46:09.181Z,5.07
2023-05-24T10:48:38.430Z,5.27
2023-05-24T10:51:34.766Z,6.50
2023-05-24T10:54:16.812Z,5.60
2023-05-24T10:56:49.304Z,5.60
2023-05-24T10:59:34.608Z,5.50
2023-05-24T11:02:04.929Z,4.47
2023-05-24T11:04:34.593Z,5.30
2023-05-24T11:07:05.102Z,5.13
2023-05-24T11:09:33.353Z,5.73
2023-05-24T11:12:07.363Z,5.63
2023-05-24T11:14:38.433Z,5.97
2023-05-24T11:17:08.030Z,5.27
2023-05-24T11:19:37.436Z,5.90
2023-05-24T11:22:08.186Z,5.93
2023-05-24T11:24:36.301Z,5.60
2023-05-24T11:27:04.644Z,5.53
2023-05-24T11:29:32.380Z,5.20
2023-05-24T11:32:04.590Z,5.33
2023-05-24T11:34:34.423Z,5.17
2023-05-24T11:37:05.412Z,4.70
2023-05-24T11:39:34.374Z,5.77
2023-05-24T11:42:02.434Z,4.87
2023-05-24T11:44:32.529Z,5.50
2023-05-24T11:47:01.048Z,5.23
2023-05-24T11:49:29.043Z,5.70
2023-05-24T11:51:59.449Z,4.83
2023-05-24T11:54:28.418Z,4.30
2023-05-24T11:56:56.516Z,5.30
2023-05-24T11:59:26.120Z,4.97
2023-05-24T12:02:00.089Z,5.20
2023-05-24T12:04:28.336Z,5.23
2023-05-24T12:06:56.222Z,4.53
2023-05-24T12:09:25.240Z,5.80
2023-05-24T12:11:53.850Z,4.90
2023-05-24T12:14:26.068Z,5.30
2023-05-24T12:16:56.069Z,6.00
2023-05-24T12:21:58.816Z,5.03
2023-05-24T12:24:28.857Z,5.30
2023-05-24T12:27:01.101Z,5.23
2023-05-24T12:29:28.766Z,5.17
2023-05-24T12:31:56.489Z,5.17
2023-05-24T12:34:25.423Z,4.60
2023-05-24T12:36:54.613Z,4.67
2023-05-24T12:39:23.568Z,5.13
2023-05-24T12:41:53.727Z,4.73
2023-05-24T12:44:26.254Z,5.53
2023-05-24T12:46:54.538Z,4.07
2023-05-24T12:49:22.769Z,5.23
2023-05-24T12:51:50.518Z,4.60
2023-05-24T12:54:20.092Z,5.27
2023-05-24T12:56:47.709Z,5.30
2023-05-24T12:59:16.606Z,4.20
2023-05-24T13:01:47.022Z,4.40
2023-05-24T13:04:14.752Z,5.10
2023-05-24T13:06:42.347Z,4.10
2023-05-24T13:09:10.713Z,4.57
2023-05-24T13:11:38.456Z,3.60
2023-05-24T13:14:08.541Z,4.13
2023-05-24T13:16:37.434Z,3.93
2023-05-24T13:19:05.076Z,3.93
2023-05-24T13:21:32.622Z,4.17
2023-05-24T13:24:00.229Z,3.67
2023-05-24T13:26:28.014Z,3.90
2023-05-24T13:31:26.773Z,4.30
2023-05-24T13:33:55.897Z,4.00
2023-05-24T13:36:23.827Z,3.80
2023-05-24T13:39:02.348Z,3.67
2023-05-24T13:41:39.680Z,3.53
2023-05-24T13:44:10.789Z,3.33
2023-05-24T13:46:38.832Z,3.07
2023-05-24T13:49:09.150Z,2.93
2023-05-24T13:51:37.136Z,3.70
2023-05-24T13:54:06.942Z,4.73
2023-05-24T13:56:35.328Z,3.50
2023-05-24T13:59:04.388Z,4.20
2023-05-24T14:01:32.261Z,3.87
2023-05-24T14:04:02.052Z,4.40
2023-05-24T14:06:31.344Z,4.30
2023-05-24T14:08:59.244Z,4.50
2023-05-24T14:11:27.757Z,4.17
2023-05-24T14:14:54.275Z,3.50
2023-05-24T14:16:43.011Z,3.53
2023-05-24T14:19:10.824Z,3.70
2023-05-24T14:21:41.171Z,4.67
2023-05-24T14:24:09.704Z,4.43
2023-05-24T14:26:37.323Z,4.37
2023-05-24T14:29:04.904Z,5.40
2023-05-24T14:31:33.591Z,3.67
2023-05-24T14:34:01.276Z,4.20
2023-05-24T14:36:28.804Z,3.70
2023-05-24T14:38:57.746Z,4.63
2023-05-24T14:41:25.294Z,4.17
2023-05-24T14:43:52.804Z,4.20
2023-05-24T14:46:20.423Z,4.63
2023-05-24T14:48:48.018Z,4.90
2023-05-24T14:51:15.600Z,4.23
2023-05-24T14:53:43.155Z,4.53
2023-05-24T14:56:15.103Z,4.93
2023-05-24T14:58:42.830Z,4.50
2023-05-24T15:01:10.597Z,5.40
2023-05-24T15:03:39.141Z,5.33
2023-05-24T15:06:07.283Z,5.70
2023-05-24T15:08:35.291Z,5.77
2023-05-24T15:11:02.916Z,6.00
2023-05-24T15:13:31.826Z,5.90
2023-05-24T15:16:00.555Z,6.13
2023-05-24T15:18:28.877Z,5.77
2023-05-24T15:20:56.909Z,6.63
2023-05-24T15:23:25.882Z,6.53
2023-05-24T15:25:53.403Z,5.47
2023-05-24T15:28:20.982Z,6.13
2023-05-24T15:30:49.997Z,6.60
2023-05-24T15:33:17.730Z,5.73
2023-05-24T15:35:45.292Z,5.20
2023-05-24T15:38:12.840Z,6.03
2023-05-24T15:40:41.991Z,5.30
2023-05-24T15:43:09.805Z,5.70
2023-05-24T15:45:37.570Z,7.03
2023-05-24T15:48:06.634Z,4.53
2023-05-24T15:50:57.429Z,4.20
2023-05-24T15:53:21.963Z,4.80
2023-05-24T15:55:49.634Z,4.20
2023-05-24T15:58:17.285Z,5.70
2023-05-24T16:00:45.255Z,5.30
2023-05-24T16:03:15.673Z,4.90
2023-05-24T16:05:43.558Z,4.50
2023-05-24T16:08:11.232Z,4.50
2023-05-24T16:10:38.747Z,4.37
2023-05-24T16:13:09.571Z,4.50
2023-05-24T16:15:37.515Z,5.40
2023-05-24T16:18:05.780Z,4.63
2023-05-24T16:20:34.880Z,4.20
2023-05-24T16:23:03.523Z,4.00
2023-05-24T16:25:31.050Z,4.70
2023-05-24T16:28:00.236Z,4.57
2023-05-24T16:30:27.808Z,3.90
2023-05-24T16:32:55.565Z,4.60
2023-05-24T16:35:23.204Z,5.00
2023-05-24T16:37:52.727Z,4.80
2023-05-24T16:40:20.430Z,4.00
2023-05-24T16:42:48.347Z,4.30
2023-05-24T16:45:16.212Z,4.10
2023-05-24T16:47:43.920Z,4.27
2023-05-24T16:50:15.099Z,3.77
2023-05-24T16:52:42.977Z,4.00
2023-05-24T16:55:13.234Z,4.17
2023-05-24T16:57:40.843Z,4.67
2023-05-24T17:00:09.819Z,4.40
2023-05-24T17:02:37.657Z,4.70
2023-05-24T17:05:05.717Z,4.30
2023-05-24T17:07:33.564Z,4.70
2023-05-24T17:10:01.122Z,4.37
2023-05-24T17:12:30.376Z,4.17
2023-05-24T17:14:57.940Z,5.20
2023-05-24T17:17:26.216Z,4.50
2023-05-24T17:19:53.880Z,4.73
2023-05-24T17:22:21.666Z,4.90
2023-05-24T17:24:49.187Z,4.03
2023-05-24T17:27:20.006Z,4.60
2023-05-24T17:29:51.359Z,4.47
2023-05-24T17:32:18.887Z,4.40
2023-05-24T17:34:46.428Z,4.40
2023-05-24T17:37:14.200Z,4.63
2023-05-24T17:39:41.767Z,4.70
2023-05-24T17:42:09.318Z,4.20
2023-05-24T17:44:36.889Z,5.00
2023-05-24T17:47:06.152Z,3.90
2023-05-24T17:49:33.754Z,3.90
2023-05-24T17:52:01.394Z,4.47
2023-05-24T17:54:29.040Z,4.50
2023-05-24T17:56:56.654Z,4.33
2023-05-24T17:59:26.866Z,5.07
2023-05-24T18:01:54.483Z,5.40
2023-05-24T18:04:23.389Z,4.93
2023-05-24T18:06:51.066Z,5.40
2023-05-24T18:09:18.649Z,5.60
2023-05-24T18:11:46.528Z,5.93
2023-05-24T18:14:14.104Z,5.10
2023-05-24T18:16:43.001Z,4.17
2023-05-24T18:19:10.814Z,5.07
2023-05-24T18:21:40.124Z,5.17
2023-05-24T18:24:07.949Z,5.50
2023-05-24T18:26:35.514Z,5.40
2023-05-24T18:29:03.102Z,4.87
2023-05-24T18:31:30.627Z,5.30
2023-05-24T18:34:00.195Z,4.80
2023-05-24T18:36:29.206Z,5.57
2023-05-24T18:38:58.078Z,5.23
2023-05-24T18:41:26.474Z,4.67
2023-05-24T18:43:53.979Z,4.80
2023-05-24T18:46:21.598Z,3.93
2023-05-24T18:48:49.211Z,5.83
2023-05-24T18:51:16.798Z,5.07
2023-05-24T18:53:44.442Z,4.73
2023-05-24T18:56:14.889Z,4.43
2023-05-24T18:58:45.226Z,5.13
2023-05-24T19:01:13.505Z,5.53
2023-05-24T19:03:41.735Z,5.57
2023-05-24T19:06:09.384Z,5.13
2023-05-24T19:08:36.985Z,4.30
2023-05-24T19:11:04.589Z,4.63
2023-05-24T19:13:33.664Z,4.60
2023-05-24T19:16:01.533Z,5.13
2023-05-24T19:18:29.233Z,4.90
2023-05-24T19:20:56.825Z,5.33
2023-05-24T19:23:24.437Z,4.73
2023-05-24T19:25:51.971Z,6.17
2023-05-24T19:28:19.541Z,4.80
2023-05-24T19:30:48.394Z,5.60
2023-05-24T19:33:16.043Z,5.13
2023-05-24T19:35:43.872Z,5.33
2023-05-24T19:38:12.080Z,5.20
2023-05-24T19:40:39.700Z,4.07
2023-05-24T19:43:07.333Z,5.57
2023-05-24T19:45:38.003Z,4.80
2023-05-24T19:48:09.487Z,5.50
2023-05-24T19:50:38.164Z,5.17
2023-05-24T19:53:05.727Z,4.90
2023-05-24T19:55:33.234Z,5.90
2023-05-24T19:58:00.763Z,6.03
2023-05-24T20:00:28.369Z,6.40
2023-05-24T20:02:56.253Z,5.33
2023-05-24T20:05:25.115Z,5.20
2023-05-24T20:07:52.703Z,4.83
2023-05-24T20:10:20.354Z,5.47
2023-05-24T20:12:47.936Z,5.00
2023-05-24T20:15:17.222Z,5.30
2023-05-24T20:17:46.215Z,6.07
2023-05-24T20:20:13.810Z,4.70
2023-05-24T20:22:45.961Z,5.20
2023-05-24T20:25:13.707Z,5.03
2023-05-24T20:27:42.714Z,5.20
2023-05-24T20:30:11.642Z,6.20
2023-05-24T20:32:39.240Z,6.10
2023-05-24T20:35:08.037Z,5.40
2023-05-24T20:37:36.275Z,5.40
2023-05-24T20:40:07.260Z,4.47
2023-05-24T20:42:35.514Z,5.03
2023-05-24T20:45:03.609Z,5.40
2023-05-24T20:47:35.565Z,5.60
2023-05-24T20:50:03.941Z,4.70
2023-05-24T20:52:31.460Z,5.60
2023-05-24T20:54:59.023Z,5.90
2023-05-24T20:57:27.960Z,5.67
2023-05-24T20:59:55.457Z,5.00
2023-05-24T21:02:23.323Z,5.63
2023-05-24T21:04:51.101Z,5.20
2023-05-24T21:07:18.659Z,5.33
2023-05-24T21:09:48.164Z,5.23
2023-05-24T21:12:16.018Z,4.20
2023-05-24T21:14:45.081Z,7.27
2023-05-24T21:17:13.227Z,4.83
2023-05-24T21:19:40.884Z,5.63
2023-05-24T21:22:08.476Z,6.40
2023-05-24T21:24:36.136Z,6.10
2023-05-24T21:27:03.714Z,5.13
2023-05-24T21:29:31.193Z,4.63
2023-05-24T21:32:00.110Z,5.13
2023-05-24T21:34:28.254Z,4.70
2023-05-24T21:36:55.788Z,4.27
2023-05-24T21:39:23.335Z,4.40
2023-05-24T21:41:50.931Z,5.10
2023-05-24T21:44:18.541Z,4.90
2023-05-24T21:46:46.072Z,4.70
2023-05-24T21:49:17.162Z,4.77
2023-05-24T21:51:44.650Z,5.90
2023-05-24T21:54:12.237Z,4.97
2023-05-24T21:56:39.762Z,5.43
2023-05-24T21:59:07.709Z,5.10
2023-05-24T22:01:36.771Z,4.60
2023-05-24T22:04:04.585Z,5.77
2023-05-24T22:06:33.564Z,4.67
2023-05-24T22:09:01.980Z,5.13
2023-05-24T22:11:29.634Z,5.23
2023-05-24T22:13:57.351Z,5.97
2023-05-24T22:16:24.974Z,4.97
2023-05-24T22:18:54.048Z,5.20
2023-05-24T22:21:22.798Z,6.03
2023-05-24T22:23:52.086Z,5.80
2023-05-24T22:26:19.706Z,5.23
2023-05-24T22:28:54.939Z,5.37
2023-05-24T22:31:23.951Z,4.07
2023-05-24T22:33:51.606Z,5.13
2023-05-24T22:36:20.816Z,4.50
2023-05-24T22:38:48.310Z,4.87
2023-05-24T22:41:17.184Z,5.60
2023-05-24T22:43:44.952Z,5.03
2023-05-24T22:46:12.531Z,4.53
2023-05-24T22:48:40.456Z,4.10
2023-05-24T22:51:09.190Z,4.30
2023-05-24T22:53:39.093Z,5.80
2023-05-24T22:56:07.761Z,5.40
2023-05-24T22:58:37.386Z,5.10
2023-05-24T23:01:04.983Z,5.20
2023-05-24T23:03:32.793Z,5.27
2023-05-24T23:06:03.887Z,5.60
2023-05-24T23:08:32.663Z,4.60
2023-05-24T23:11:00.605Z,5.33
2023-05-24T23:13:32.975Z,5.20
2023-05-24T23:16:01.842Z,5.50
2023-05-24T23:18:29.463Z,4.90
2023-05-24T23:20:56.997Z,4.83
2023-05-24T23:23:24.778Z,5.17
2023-05-24T23:25:52.527Z,4.50
2023-05-24T23:28:20.162Z,4.83
2023-05-24T23:30:47.727Z,4.53
2023-05-24T23:33:16.611Z,4.43
2023-05-24T23:35:44.332Z,4.50
2023-05-24T23:38:12.077Z,4.07
2023-05-24T23:40:39.603Z,5.20
2023-05-24T23:43:07.186Z,4.10
2023-05-24T23:45:34.871Z,5.20
2023-05-24T23:48:03.035Z,4.60
2023-05-24T23:50:39.922Z,4.00
2023-05-24T23:53:10.621Z,4.90
2023-05-24T23:55:40.551Z,4.40
2023-05-24T23:58:08.807Z,3.47
